sensor_id;sensor_type;location;lat;lon;timestamp;pressure;altitude;pressure_sealevel;temperature;humidity
39275;BME280;24980;48.874;2.332;2023-12-20T00:01:05;101703.28;;;23.74;39.56
39275;BME280;24980;48.874;2.332;2023-12-20T00:03:35;101705.83;;;23.75;39.55
39275;BME280;24980;48.874;2.332;2023-12-20T00:06:05;101718.58;;;23.76;39.55
39275;BME280;24980;48.874;2.332;2023-12-20T00:08:36;101720.72;;;23.74;39.55
39275;BME280;24980;48.874;2.332;2023-12-20T00:11:05;101728.59;;;23.74;39.54
39275;BME280;24980;48.874;2.332;2023-12-20T00:13:35;101730.56;;;23.72;39.56
39275;BME280;24980;48.874;2.332;2023-12-20T00:16:06;101735.72;;;23.72;39.54
39275;BME280;24980;48.874;2.332;2023-12-20T00:18:36;101735.78;;;23.73;39.54
39275;BME280;24980;48.874;2.332;2023-12-20T00:21:06;101739.08;;;23.74;39.54
39275;BME280;24980;48.874;2.332;2023-12-20T00:23:37;101746.77;;;23.77;39.53
39275;BME280;24980;48.874;2.332;2023-12-20T00:26:06;101741.16;;;23.81;39.52
39275;BME280;24980;48.874;2.332;2023-12-20T00:28:36;101750.53;;;23.84;39.52
39275;BME280;24980;48.874;2.332;2023-12-20T00:31:06;101754.66;;;23.88;39.51
39275;BME280;24980;48.874;2.332;2023-12-20T00:33:36;101758.36;;;23.91;39.50
39275;BME280;24980;48.874;2.332;2023-12-20T00:36:06;101760.31;;;23.92;39.50
39275;BME280;24980;48.874;2.332;2023-12-20T00:38:37;101753.52;;;23.94;39.50
39275;BME280;24980;48.874;2.332;2023-12-20T00:41:10;101753.91;;;23.97;39.48
39275;BME280;24980;48.874;2.332;2023-12-20T00:43:37;101756.55;;;23.97;39.48
39275;BME280;24980;48.874;2.332;2023-12-20T00:46:07;101760.44;;;23.97;39.50
39275;BME280;24980;48.874;2.332;2023-12-20T00:48:40;101753.53;;;24.03;39.47
39275;BME280;24980;48.874;2.332;2023-12-20T00:51:08;101754.27;;;24.07;39.44
39275;BME280;24980;48.874;2.332;2023-12-20T00:53:38;101759.57;;;24.08;39.45
39275;BME280;24980;48.874;2.332;2023-12-20T00:56:08;101760.59;;;24.12;39.44
39275;BME280;24980;48.874;2.332;2023-12-20T00:58:38;101763.34;;;24.18;39.43
39275;BME280;24980;48.874;2.332;2023-12-20T01:01:08;101764.05;;;24.24;39.39
39275;BME280;24980;48.874;2.332;2023-12-20T01:03:38;101761.56;;;24.28;39.38
39275;BME280;24980;48.874;2.332;2023-12-20T01:06:09;101764.70;;;24.28;39.39
39275;BME280;24980;48.874;2.332;2023-12-20T01:08:39;101762.59;;;24.29;39.40
39275;BME280;24980;48.874;2.332;2023-12-20T01:11:09;101760.23;;;24.27;39.43
39275;BME280;24980;48.874;2.332;2023-12-20T01:13:39;101765.05;;;24.30;39.44
39275;BME280;24980;48.874;2.332;2023-12-20T01:18:40;101787.50;;;24.40;39.41
39275;BME280;24980;48.874;2.332;2023-12-20T01:21:11;101783.41;;;24.41;39.44
39275;BME280;24980;48.874;2.332;2023-12-20T01:23:41;101792.38;;;24.42;39.46
39275;BME280;24980;48.874;2.332;2023-12-20T01:26:11;101787.50;;;24.38;39.50
39275;BME280;24980;48.874;2.332;2023-12-20T01:28:41;101790.66;;;24.37;39.54
39275;BME280;24980;48.874;2.332;2023-12-20T01:31:12;101801.39;;;24.37;39.60
39275;BME280;24980;48.874;2.332;2023-12-20T01:33:42;101778.80;;;24.36;39.63
39275;BME280;24980;48.874;2.332;2023-12-20T01:36:12;101786.08;;;24.35;39.68
39275;BME280;24980;48.874;2.332;2023-12-20T01:38:43;101783.88;;;24.36;39.68
39275;BME280;24980;48.874;2.332;2023-12-20T01:41:13;101783.03;;;24.36;39.71
39275;BME280;24980;48.874;2.332;2023-12-20T01:43:43;101787.19;;;24.36;39.75
39275;BME280;24980;48.874;2.332;2023-12-20T01:46:14;101794.90;;;24.36;39.77
39275;BME280;24980;48.874;2.332;2023-12-20T01:48:45;101799.55;;;24.35;39.79
39275;BME280;24980;48.874;2.332;2023-12-20T01:51:15;101795.83;;;24.34;39.79
39275;BME280;24980;48.874;2.332;2023-12-20T01:53:47;101800.09;;;24.32;39.81
39275;BME280;24980;48.874;2.332;2023-12-20T01:56:16;101804.16;;;24.32;39.83
39275;BME280;24980;48.874;2.332;2023-12-20T01:58:48;101806.53;;;24.32;39.83
39275;BME280;24980;48.874;2.332;2023-12-20T02:01:17;101805.38;;;24.30;39.87
39275;BME280;24980;48.874;2.332;2023-12-20T02:03:47;101807.74;;;24.29;39.89
39275;BME280;24980;48.874;2.332;2023-12-20T02:06:18;101812.91;;;24.30;39.90
39275;BME280;24980;48.874;2.332;2023-12-20T02:08:50;101812.41;;;24.30;39.91
39275;BME280;24980;48.874;2.332;2023-12-20T02:11:21;101820.88;;;24.30;39.90
39275;BME280;24980;48.874;2.332;2023-12-20T02:13:51;101818.25;;;24.30;39.90
39275;BME280;24980;48.874;2.332;2023-12-20T02:16:21;101819.34;;;24.29;39.93
39275;BME280;24980;48.874;2.332;2023-12-20T02:18:52;101822.31;;;24.29;39.93
39275;BME280;24980;48.874;2.332;2023-12-20T02:21:25;101830.27;;;24.28;39.91
39275;BME280;24980;48.874;2.332;2023-12-20T02:23:53;101829.09;;;24.28;39.92
39275;BME280;24980;48.874;2.332;2023-12-20T02:26:26;101831.80;;;24.27;39.92
39275;BME280;24980;48.874;2.332;2023-12-20T02:28:59;101829.01;;;24.30;39.91
39275;BME280;24980;48.874;2.332;2023-12-20T02:31:24;101831.10;;;24.32;39.88
39275;BME280;24980;48.874;2.332;2023-12-20T02:33:54;101832.97;;;24.32;39.87
39275;BME280;24980;48.874;2.332;2023-12-20T02:36:25;101832.06;;;24.30;39.88
39275;BME280;24980;48.874;2.332;2023-12-20T02:38:55;101831.98;;;24.30;39.88
39275;BME280;24980;48.874;2.332;2023-12-20T02:41:25;101832.73;;;24.30;39.87
39275;BME280;24980;48.874;2.332;2023-12-20T02:43:55;101841.80;;;24.28;39.85
39275;BME280;24980;48.874;2.332;2023-12-20T02:46:25;101847.05;;;24.28;39.86
39275;BME280;24980;48.874;2.332;2023-12-20T02:48:55;101849.76;;;24.27;39.85
39275;BME280;24980;48.874;2.332;2023-12-20T02:51:26;101843.44;;;24.26;39.88
39275;BME280;24980;48.874;2.332;2023-12-20T02:53:56;101838.02;;;24.27;39.88
39275;BME280;24980;48.874;2.332;2023-12-20T02:56:26;101832.16;;;24.26;39.87
39275;BME280;24980;48.874;2.332;2023-12-20T02:58:56;101833.33;;;24.27;39.87
39275;BME280;24980;48.874;2.332;2023-12-20T03:01:29;101837.81;;;24.29;39.84
39275;BME280;24980;48.874;2.332;2023-12-20T03:03:57;101831.80;;;24.30;39.83
39275;BME280;24980;48.874;2.332;2023-12-20T03:06:27;101840.62;;;24.30;39.83
39275;BME280;24980;48.874;2.332;2023-12-20T03:08:57;101845.25;;;24.31;39.82
39275;BME280;24980;48.874;2.332;2023-12-20T03:11:28;101849.74;;;24.32;39.80
39275;BME280;24980;48.874;2.332;2023-12-20T03:14:01;101850.93;;;24.33;39.78
39275;BME280;24980;48.874;2.332;2023-12-20T03:16:28;101840.36;;;24.30;39.81
39275;BME280;24980;48.874;2.332;2023-12-20T03:18:59;101834.94;;;24.29;39.82
39275;BME280;24980;48.874;2.332;2023-12-20T03:21:29;101832.05;;;24.29;39.82
39275;BME280;24980;48.874;2.332;2023-12-20T03:23:59;101840.53;;;24.29;39.82
39275;BME280;24980;48.874;2.332;2023-12-20T03:26:29;101841.31;;;24.27;39.82
39275;BME280;24980;48.874;2.332;2023-12-20T03:29:00;101847.42;;;24.27;39.83
39275;BME280;24980;48.874;2.332;2023-12-20T03:31:30;101837.56;;;24.27;39.82
39275;BME280;24980;48.874;2.332;2023-12-20T03:34:00;101836.29;;;24.28;39.83
39275;BME280;24980;48.874;2.332;2023-12-20T03:36:30;101830.95;;;24.28;39.83
39275;BME280;24980;48.874;2.332;2023-12-20T03:39:00;101839.09;;;24.29;39.82
39275;BME280;24980;48.874;2.332;2023-12-20T03:41:30;101844.84;;;24.29;39.82
39275;BME280;24980;48.874;2.332;2023-12-20T03:44:01;101845.36;;;24.28;39.82
39275;BME280;24980;48.874;2.332;2023-12-20T03:46:31;101838.41;;;24.29;39.81
39275;BME280;24980;48.874;2.332;2023-12-20T03:49:05;101845.78;;;24.29;39.82
39275;BME280;24980;48.874;2.332;2023-12-20T03:51:35;101843.84;;;24.30;39.80
39275;BME280;24980;48.874;2.332;2023-12-20T03:54:04;101846.97;;;24.29;39.81
39275;BME280;24980;48.874;2.332;2023-12-20T03:56:32;101850.11;;;24.30;39.80
39275;BME280;24980;48.874;2.332;2023-12-20T03:59:03;101847.06;;;24.30;39.79
39275;BME280;24980;48.874;2.332;2023-12-20T04:01:33;101852.65;;;24.30;39.79
39275;BME280;24980;48.874;2.332;2023-12-20T04:04:03;101853.98;;;24.31;39.79
39275;BME280;24980;48.874;2.332;2023-12-20T04:06:33;101853.08;;;24.30;39.79
39275;BME280;24980;48.874;2.332;2023-12-20T04:09:05;101847.31;;;24.29;39.79
39275;BME280;24980;48.874;2.332;2023-12-20T04:11:34;101841.69;;;24.31;39.78
39275;BME280;24980;48.874;2.332;2023-12-20T04:14:05;101844.23;;;24.32;39.78
39275;BME280;24980;48.874;2.332;2023-12-20T04:16:35;101847.98;;;24.29;39.79
39275;BME280;24980;48.874;2.332;2023-12-20T04:19:05;101847.98;;;24.29;39.80
39275;BME280;24980;48.874;2.332;2023-12-20T04:21:35;101847.56;;;24.29;39.79
39275;BME280;24980;48.874;2.332;2023-12-20T04:24:05;101846.97;;;24.30;39.78
39275;BME280;24980;48.874;2.332;2023-12-20T04:26:36;101844.52;;;24.29;39.77
39275;BME280;24980;48.874;2.332;2023-12-20T04:29:06;101850.27;;;24.28;39.80
39275;BME280;24980;48.874;2.332;2023-12-20T04:31:36;101857.39;;;24.30;39.79
39275;BME280;24980;48.874;2.332;2023-12-20T04:34:07;101866.03;;;24.30;39.78
39275;BME280;24980;48.874;2.332;2023-12-20T04:36:38;101868.91;;;24.30;39.77
39275;BME280;24980;48.874;2.332;2023-12-20T04:39:08;101864.59;;;24.29;39.79
39275;BME280;24980;48.874;2.332;2023-12-20T04:41:38;101854.51;;;24.28;39.76
39275;BME280;24980;48.874;2.332;2023-12-20T04:44:08;101849.00;;;24.28;39.77
39275;BME280;24980;48.874;2.332;2023-12-20T04:46:41;101844.84;;;24.28;39.75
39275;BME280;24980;48.874;2.332;2023-12-20T04:49:09;101848.66;;;24.29;39.75
39275;BME280;24980;48.874;2.332;2023-12-20T04:51:39;101849.59;;;24.30;39.74
39275;BME280;24980;48.874;2.332;2023-12-20T04:54:10;101855.11;;;24.30;39.74
39275;BME280;24980;48.874;2.332;2023-12-20T04:56:41;101857.13;;;24.29;39.76
39275;BME280;24980;48.874;2.332;2023-12-20T04:59:12;101857.73;;;24.29;39.75
39275;BME280;24980;48.874;2.332;2023-12-20T05:01:42;101853.07;;;24.29;39.75
39275;BME280;24980;48.874;2.332;2023-12-20T05:04:15;101855.19;;;24.30;39.73
39275;BME280;24980;48.874;2.332;2023-12-20T05:06:43;101857.62;;;24.31;39.73
39275;BME280;24980;48.874;2.332;2023-12-20T05:09:13;101857.70;;;24.32;39.72
39275;BME280;24980;48.874;2.332;2023-12-20T05:11:43;101859.83;;;24.33;39.70
39275;BME280;24980;48.874;2.332;2023-12-20T05:14:14;101865.08;;;24.33;39.70
39275;BME280;24980;48.874;2.332;2023-12-20T05:16:46;101867.80;;;24.33;39.68
39275;BME280;24980;48.874;2.332;2023-12-20T05:19:14;101865.59;;;24.33;39.68
39275;BME280;24980;48.874;2.332;2023-12-20T05:21:44;101869.48;;;24.32;39.68
39275;BME280;24980;48.874;2.332;2023-12-20T05:24:15;101866.00;;;24.31;39.70
39275;BME280;24980;48.874;2.332;2023-12-20T05:26:45;101865.86;;;24.30;39.69
39275;BME280;24980;48.874;2.332;2023-12-20T05:29:15;101863.30;;;24.31;39.69
39275;BME280;24980;48.874;2.332;2023-12-20T05:31:45;101863.16;;;24.30;39.68
39275;BME280;24980;48.874;2.332;2023-12-20T05:34:18;101866.71;;;24.30;39.66
39275;BME280;24980;48.874;2.332;2023-12-20T05:39:19;101874.84;;;24.28;39.68
39275;BME280;24980;48.874;2.332;2023-12-20T05:41:46;101875.60;;;24.28;39.71
39275;BME280;24980;48.874;2.332;2023-12-20T05:44:17;101880.52;;;24.29;39.72
39275;BME280;24980;48.874;2.332;2023-12-20T05:46:50;101877.55;;;24.29;39.71
39275;BME280;24980;48.874;2.332;2023-12-20T05:49:21;101878.99;;;24.29;39.72
39275;BME280;24980;48.874;2.332;2023-12-20T05:51:51;101878.73;;;24.29;39.71
39275;BME280;24980;48.874;2.332;2023-12-20T05:54:18;101884.76;;;24.29;39.70
39275;BME280;24980;48.874;2.332;2023-12-20T05:56:49;101879.33;;;24.29;39.70
39275;BME280;24980;48.874;2.332;2023-12-20T05:59:19;101880.69;;;24.29;39.70
39275;BME280;24980;48.874;2.332;2023-12-20T06:01:49;101885.09;;;24.30;39.71
39275;BME280;24980;48.874;2.332;2023-12-20T06:04:19;101889.84;;;24.30;39.70
39275;BME280;24980;48.874;2.332;2023-12-20T06:06:49;101902.44;;;24.32;39.70
39275;BME280;24980;48.874;2.332;2023-12-20T06:09:19;101905.32;;;24.32;39.70
39275;BME280;24980;48.874;2.332;2023-12-20T06:11:49;101906.34;;;24.32;39.70
39275;BME280;24980;48.874;2.332;2023-12-20T06:14:20;101904.14;;;24.32;39.71
39275;BME280;24980;48.874;2.332;2023-12-20T06:16:50;101906.09;;;24.33;39.69
39275;BME280;24980;48.874;2.332;2023-12-20T06:19:20;101903.86;;;24.36;39.65
39275;BME280;24980;48.874;2.332;2023-12-20T06:21:52;101901.49;;;24.36;39.65
39275;BME280;24980;48.874;2.332;2023-12-20T06:24:21;101896.27;;;24.34;39.68
39275;BME280;24980;48.874;2.332;2023-12-20T06:26:51;101894.64;;;24.32;39.68
39275;BME280;24980;48.874;2.332;2023-12-20T06:29:23;101899.05;;;24.32;39.68
39275;BME280;24980;48.874;2.332;2023-12-20T06:31:52;101899.81;;;24.33;39.67
39275;BME280;24980;48.874;2.332;2023-12-20T06:34:24;101897.19;;;24.32;39.66
39275;BME280;24980;48.874;2.332;2023-12-20T06:36:53;101900.32;;;24.32;39.66
39275;BME280;24980;48.874;2.332;2023-12-20T06:39:26;101897.11;;;24.33;39.65
39275;BME280;24980;48.874;2.332;2023-12-20T06:41:53;101895.73;;;24.36;39.63
39275;BME280;24980;48.874;2.332;2023-12-20T06:44:23;101899.62;;;24.36;39.62
39275;BME280;24980;48.874;2.332;2023-12-20T06:46:58;101897.19;;;24.33;39.64
39275;BME280;24980;48.874;2.332;2023-12-20T06:49:24;101901.77;;;24.32;39.66
39275;BME280;24980;48.874;2.332;2023-12-20T06:51:54;101908.62;;;24.33;39.67
39275;BME280;24980;48.874;2.332;2023-12-20T06:54:25;101905.66;;;24.31;39.66
39275;BME280;24980;48.874;2.332;2023-12-20T06:56:55;101907.92;;;24.34;39.64
39275;BME280;24980;48.874;2.332;2023-12-20T06:59:27;101904.71;;;24.36;39.62
39275;BME280;24980;48.874;2.332;2023-12-20T07:01:56;101905.22;;;24.35;39.61
39275;BME280;24980;48.874;2.332;2023-12-20T07:04:26;101906.98;;;24.34;39.62
39275;BME280;24980;48.874;2.332;2023-12-20T07:06:56;101906.25;;;24.32;39.63
39275;BME280;24980;48.874;2.332;2023-12-20T07:09:26;101909.22;;;24.32;39.64
39275;BME280;24980;48.874;2.332;2023-12-20T07:11:56;101912.19;;;24.34;39.63
39275;BME280;24980;48.874;2.332;2023-12-20T07:14:26;101917.16;;;24.34;39.62
39275;BME280;24980;48.874;2.332;2023-12-20T07:16:57;101920.64;;;24.35;39.62
39275;BME280;24980;48.874;2.332;2023-12-20T07:19:27;101922.98;;;24.37;39.61
39275;BME280;24980;48.874;2.332;2023-12-20T07:21:59;101926.06;;;24.37;39.60
39275;BME280;24980;48.874;2.332;2023-12-20T07:24:28;101928.41;;;24.38;39.59
39275;BME280;24980;48.874;2.332;2023-12-20T07:27:01;101926.47;;;24.39;39.59
39275;BME280;24980;48.874;2.332;2023-12-20T07:29:29;101928.24;;;24.38;39.60
39275;BME280;24980;48.874;2.332;2023-12-20T07:31:59;101930.95;;;24.37;39.61
39275;BME280;24980;48.874;2.332;2023-12-20T07:34:29;101926.97;;;24.37;39.60
39275;BME280;24980;48.874;2.332;2023-12-20T07:37:00;101929.09;;;24.37;39.60
39275;BME280;24980;48.874;2.332;2023-12-20T07:39:35;101930.11;;;24.38;39.60
39275;BME280;24980;48.874;2.332;2023-12-20T07:42:04;101936.55;;;24.39;39.59
39275;BME280;24980;48.874;2.332;2023-12-20T07:44:31;101935.11;;;24.38;39.60
39275;BME280;24980;48.874;2.332;2023-12-20T07:49:32;101937.48;;;24.38;39.59
39275;BME280;24980;48.874;2.332;2023-12-20T07:52:03;101944.01;;;24.39;39.60
39275;BME280;24980;48.874;2.332;2023-12-20T07:54:39;101945.19;;;24.38;39.61
39275;BME280;24980;48.874;2.332;2023-12-20T07:57:06;101944.17;;;24.37;39.62
39275;BME280;24980;48.874;2.332;2023-12-20T07:59:34;101942.73;;;24.39;39.59
39275;BME280;24980;48.874;2.332;2023-12-20T08:02:04;101947.97;;;24.42;39.58
39275;BME280;24980;48.874;2.332;2023-12-20T08:04:34;101936.11;;;24.43;39.55
39275;BME280;24980;48.874;2.332;2023-12-20T08:07:04;101935.94;;;24.43;39.54
39275;BME280;24980;48.874;2.332;2023-12-20T08:09:35;101940.06;;;24.44;39.52
39275;BME280;24980;48.874;2.332;2023-12-20T08:12:05;101934.16;;;24.41;39.54
39275;BME280;24980;48.874;2.332;2023-12-20T08:14:36;101935.19;;;24.37;39.59
39275;BME280;24980;48.874;2.332;2023-12-20T08:17:06;101933.95;;;24.31;39.64
39275;BME280;24980;48.874;2.332;2023-12-20T08:19:36;101933.38;;;24.28;39.68
39275;BME280;24980;48.874;2.332;2023-12-20T08:22:06;101930.45;;;24.27;39.69
39275;BME280;24980;48.874;2.332;2023-12-20T08:24:37;101935.95;;;24.27;39.69
39275;BME280;24980;48.874;2.332;2023-12-20T08:27:07;101936.80;;;24.27;39.69
39275;BME280;24980;48.874;2.332;2023-12-20T08:29:38;101929.99;;;24.28;39.68
39275;BME280;24980;48.874;2.332;2023-12-20T08:32:08;101931.61;;;24.29;39.66
39275;BME280;24980;48.874;2.332;2023-12-20T08:34:38;101929.55;;;24.31;39.65
39275;BME280;24980;48.874;2.332;2023-12-20T08:37:08;101927.35;;;24.32;39.65
39275;BME280;24980;48.874;2.332;2023-12-20T08:39:38;101920.16;;;24.33;39.65
39275;BME280;24980;48.874;2.332;2023-12-20T08:42:09;101921.39;;;24.34;39.64
39275;BME280;24980;48.874;2.332;2023-12-20T08:44:39;101932.25;;;24.36;39.63
39275;BME280;24980;48.874;2.332;2023-12-20T08:47:12;101932.39;;;24.37;39.65
39275;BME280;24980;48.874;2.332;2023-12-20T08:49:40;101939.23;;;24.40;39.64
39275;BME280;24980;48.874;2.332;2023-12-20T08:52:10;101937.12;;;24.41;39.64
39275;BME280;24980;48.874;2.332;2023-12-20T08:54:40;101941.34;;;24.44;39.63
39275;BME280;24980;48.874;2.332;2023-12-20T08:57:10;101943.45;;;24.45;39.64
39275;BME280;24980;48.874;2.332;2023-12-20T08:59:40;101947.02;;;24.44;39.67
39275;BME280;24980;48.874;2.332;2023-12-20T09:02:10;101951.92;;;24.44;39.67
39275;BME280;24980;48.874;2.332;2023-12-20T09:04:41;101947.38;;;24.41;39.71
39275;BME280;24980;48.874;2.332;2023-12-20T09:07:29;101948.05;;;24.40;39.72
39275;BME280;24980;48.874;2.332;2023-12-20T09:09:41;101945.53;;;24.38;39.73
39275;BME280;24980;48.874;2.332;2023-12-20T09:12:12;101940.98;;;24.37;39.74
39275;BME280;24980;48.874;2.332;2023-12-20T09:14:42;101935.81;;;24.36;39.74
39275;BME280;24980;48.874;2.332;2023-12-20T09:17:12;101936.62;;;24.37;39.74
39275;BME280;24980;48.874;2.332;2023-12-20T09:19:43;101936.28;;;24.37;39.75
39275;BME280;24980;48.874;2.332;2023-12-20T09:22:12;101935.73;;;24.37;39.76
39275;BME280;24980;48.874;2.332;2023-12-20T09:24:42;101933.23;;;24.37;39.77
39275;BME280;24980;48.874;2.332;2023-12-20T09:27:12;101935.38;;;24.36;39.78
39275;BME280;24980;48.874;2.332;2023-12-20T09:29:42;101929.87;;;24.34;39.79
39275;BME280;24980;48.874;2.332;2023-12-20T09:32:12;101936.82;;;24.35;39.79
39275;BME280;24980;48.874;2.332;2023-12-20T09:34:42;101939.62;;;24.36;39.77
39275;BME280;24980;48.874;2.332;2023-12-20T09:37:12;101939.51;;;24.37;39.77
39275;BME280;24980;48.874;2.332;2023-12-20T09:39:42;101943.83;;;24.38;39.75
39275;BME280;24980;48.874;2.332;2023-12-20T09:42:18;101944.59;;;24.38;39.73
39275;BME280;24980;48.874;2.332;2023-12-20T09:44:42;101940.72;;;24.36;39.75
39275;BME280;24980;48.874;2.332;2023-12-20T09:47:15;101946.98;;;24.34;39.77
39275;BME280;24980;48.874;2.332;2023-12-20T09:49:46;101947.86;;;24.33;39.80
39275;BME280;24980;48.874;2.332;2023-12-20T09:52:14;101948.89;;;24.30;39.82
39275;BME280;24980;48.874;2.332;2023-12-20T09:54:45;101951.86;;;24.29;39.83
39275;BME280;24980;48.874;2.332;2023-12-20T09:57:15;101958.89;;;24.29;39.83
39275;BME280;24980;48.874;2.332;2023-12-20T09:59:45;101962.09;;;24.31;39.81
39275;BME280;24980;48.874;2.332;2023-12-20T10:02:18;101954.41;;;24.30;39.82
39275;BME280;24980;48.874;2.332;2023-12-20T10:04:47;101954.06;;;24.29;39.83
39275;BME280;24980;48.874;2.332;2023-12-20T10:07:17;101958.97;;;24.28;39.83
39275;BME280;24980;48.874;2.332;2023-12-20T10:09:47;101953.80;;;24.27;39.83
39275;BME280;24980;48.874;2.332;2023-12-20T10:12:17;101948.83;;;24.27;39.82
39275;BME280;24980;48.874;2.332;2023-12-20T10:14:47;101952.80;;;24.24;39.84
39275;BME280;24980;48.874;2.332;2023-12-20T10:17:17;101945.12;;;24.23;39.86
39275;BME280;24980;48.874;2.332;2023-12-20T10:19:47;101953.93;;;24.23;39.85
39275;BME280;24980;48.874;2.332;2023-12-20T10:22:18;101956.02;;;24.24;39.85
39275;BME280;24980;48.874;2.332;2023-12-20T10:24:47;101948.56;;;24.24;39.84
39275;BME280;24980;48.874;2.332;2023-12-20T10:27:18;101936.62;;;24.24;39.83
39275;BME280;24980;48.874;2.332;2023-12-20T10:29:48;101939.78;;;24.23;39.83
39275;BME280;24980;48.874;2.332;2023-12-20T10:32:25;101930.71;;;24.23;39.84
39275;BME280;24980;48.874;2.332;2023-12-20T10:34:48;101921.70;;;24.24;39.82
39275;BME280;24980;48.874;2.332;2023-12-20T10:37:18;101914.45;;;24.24;39.79
39275;BME280;24980;48.874;2.332;2023-12-20T10:39:50;101918.91;;;24.24;39.79
39275;BME280;24980;48.874;2.332;2023-12-20T10:42:21;101918.94;;;24.22;39.81
39275;BME280;24980;48.874;2.332;2023-12-20T10:44:49;101926.67;;;24.21;39.83
39275;BME280;24980;48.874;2.332;2023-12-20T10:47:20;101938.69;;;24.19;39.86
39275;BME280;24980;48.874;2.332;2023-12-20T10:49:52;101939.38;;;24.19;39.83
39275;BME280;24980;48.874;2.332;2023-12-20T10:52:23;101929.97;;;24.19;39.83
39275;BME280;24980;48.874;2.332;2023-12-20T10:54:51;101918.70;;;24.21;39.81
39275;BME280;24980;48.874;2.332;2023-12-20T10:57:21;101914.39;;;24.21;39.81
39275;BME280;24980;48.874;2.332;2023-12-20T10:59:53;101916.98;;;24.22;39.80
39275;BME280;24980;48.874;2.332;2023-12-20T11:02:22;101912.52;;;24.20;39.81
39275;BME280;24980;48.874;2.332;2023-12-20T11:07:35;101897.78;;;24.19;39.80
39275;BME280;24980;48.874;2.332;2023-12-20T11:09:59;101890.91;;;24.19;39.82
39275;BME280;24980;48.874;2.332;2023-12-20T11:12:38;101888.91;;;24.17;39.82
39275;BME280;24980;48.874;2.332;2023-12-20T11:14:55;101891.62;;;24.17;39.82
39275;BME280;24980;48.874;2.332;2023-12-20T11:17:26;101887.27;;;24.18;39.81
39275;BME280;24980;48.874;2.332;2023-12-20T11:20:06;101878.12;;;24.18;39.80
39275;BME280;24980;48.874;2.332;2023-12-20T11:22:29;101875.10;;;24.17;39.82
39275;BME280;24980;48.874;2.332;2023-12-20T11:25:09;101873.46;;;24.18;39.81
39275;BME280;24980;48.874;2.332;2023-12-20T11:27:26;101862.64;;;24.16;39.82
39275;BME280;24980;48.874;2.332;2023-12-20T11:29:57;101867.33;;;24.13;39.83
39275;BME280;24980;48.874;2.332;2023-12-20T11:32:30;101859.53;;;24.14;39.82
39275;BME280;24980;48.874;2.332;2023-12-20T11:34:59;101860.61;;;24.17;39.80
39275;BME280;24980;48.874;2.332;2023-12-20T11:37:35;101859.08;;;24.16;39.81
39275;BME280;24980;48.874;2.332;2023-12-20T11:40:07;101868.15;;;24.16;39.81
39275;BME280;24980;48.874;2.332;2023-12-20T11:42:39;101861.65;;;24.13;39.82
39275;BME280;24980;48.874;2.332;2023-12-20T11:45:02;101851.91;;;24.14;39.81
39275;BME280;24980;48.874;2.332;2023-12-20T11:47:36;101854.59;;;24.16;39.81
39275;BME280;24980;48.874;2.332;2023-12-20T11:50:02;101853.73;;;24.18;39.79
39275;BME280;24980;48.874;2.332;2023-12-20T11:52:32;101863.72;;;24.18;39.79
39275;BME280;24980;48.874;2.332;2023-12-20T11:55:03;101862.98;;;24.17;39.79
39275;BME280;24980;48.874;2.332;2023-12-20T11:57:33;101861.85;;;24.18;39.75
39275;BME280;24980;48.874;2.332;2023-12-20T12:00:04;101861.20;;;24.15;39.77
39275;BME280;24980;48.874;2.332;2023-12-20T12:02:33;101854.61;;;24.12;39.79
39275;BME280;24980;48.874;2.332;2023-12-20T12:05:04;101860.88;;;24.12;39.78
39275;BME280;24980;48.874;2.332;2023-12-20T12:07:35;101859.27;;;24.11;39.78
39275;BME280;24980;48.874;2.332;2023-12-20T12:10:06;101859.53;;;24.12;39.77
39275;BME280;24980;48.874;2.332;2023-12-20T12:12:35;101854.61;;;24.11;39.78
39275;BME280;24980;48.874;2.332;2023-12-20T12:15:06;101862.31;;;24.10;39.78
39275;BME280;24980;48.874;2.332;2023-12-20T12:17:36;101859.27;;;24.11;39.78
39275;BME280;24980;48.874;2.332;2023-12-20T12:20:07;101860.62;;;24.09;39.78
39275;BME280;24980;48.874;2.332;2023-12-20T12:22:37;101854.34;;;24.08;39.78
39275;BME280;24980;48.874;2.332;2023-12-20T12:25:11;101852.39;;;24.08;39.78
39275;BME280;24980;48.874;2.332;2023-12-20T12:27:37;101848.95;;;24.06;39.79
39275;BME280;24980;48.874;2.332;2023-12-20T12:30:08;101848.92;;;24.08;39.77
39275;BME280;24980;48.874;2.332;2023-12-20T12:32:38;101840.88;;;24.09;39.76
39275;BME280;24980;48.874;2.332;2023-12-20T12:35:11;101830.83;;;24.07;39.77
39275;BME280;24980;48.874;2.332;2023-12-20T12:37:40;101826.25;;;24.05;39.78
39275;BME280;24980;48.874;2.332;2023-12-20T12:40:10;101823.80;;;24.05;39.79
39275;BME280;24980;48.874;2.332;2023-12-20T12:42:41;101821.62;;;24.04;39.77
39275;BME280;24980;48.874;2.332;2023-12-20T12:45:11;101814.67;;;24.04;39.77
39275;BME280;24980;48.874;2.332;2023-12-20T12:47:41;101805.38;;;24.01;39.79
39275;BME280;24980;48.874;2.332;2023-12-20T12:50:11;101801.56;;;24.00;39.80
39275;BME280;24980;48.874;2.332;2023-12-20T12:52:41;101808.34;;;24.00;39.79
39275;BME280;24980;48.874;2.332;2023-12-20T12:55:11;101803.91;;;24.02;39.77
39275;BME280;24980;48.874;2.332;2023-12-20T12:57:41;101803.23;;;24.03;39.76
39275;BME280;24980;48.874;2.332;2023-12-20T13:00:14;101800.44;;;24.03;39.75
39275;BME280;24980;48.874;2.332;2023-12-20T13:02:41;101790.98;;;24.00;39.76
39275;BME280;24980;48.874;2.332;2023-12-20T13:05:12;101786.35;;;23.98;39.77
39275;BME280;24980;48.874;2.332;2023-12-20T13:07:42;101778.98;;;23.98;39.79
39275;BME280;24980;48.874;2.332;2023-12-20T13:10:16;101770.85;;;23.97;39.81
39275;BME280;24980;48.874;2.332;2023-12-20T13:12:43;101766.70;;;23.97;39.80
39275;BME280;24980;48.874;2.332;2023-12-20T13:15:16;101759.75;;;23.97;39.80